createdAt,value
2023-01-26T00:00:04.563Z,3.95
2023-01-26T00:02:33.402Z,4.02
2023-01-26T00:05:01.744Z,4.10
2023-01-26T00:07:30.466Z,4.19
2023-01-26T00:09:58.778Z,4.21
2023-01-26T00:12:28.463Z,4.29
2023-01-26T00:14:56.715Z,4.34
2023-01-26T00:17:27.641Z,4.33
2023-01-26T00:19:57.924Z,4.34
2023-01-26T00:22:28.193Z,4.39
2023-01-26T00:24:56.493Z,4.46
2023-01-26T00:27:24.845Z,4.38
2023-01-26T00:29:54.848Z,4.46
2023-01-26T00:32:23.192Z,4.46
2023-01-26T00:34:51.555Z,4.47
2023-01-26T00:37:20.216Z,4.51
2023-01-26T00:39:48.491Z,4.46
2023-01-26T00:42:16.836Z,4.37
2023-01-26T00:44:45.207Z,4.35
2023-01-26T00:47:16.302Z,4.32
2023-01-26T00:49:45.018Z,4.40
2023-01-26T00:52:14.295Z,4.30
2023-01-26T00:54:42.600Z,4.28
2023-01-26T00:57:11.352Z,4.07
2023-01-26T00:59:39.608Z,4.27
2023-01-26T01:02:08.003Z,4.27
2023-01-26T01:04:37.803Z,4.23
2023-01-26T01:07:06.173Z,4.20
2023-01-26T01:09:34.771Z,4.11
2023-01-26T01:12:03.118Z,4.09
2023-01-26T01:14:31.449Z,4.20
2023-01-26T01:17:00.111Z,4.18
2023-01-26T01:19:28.885Z,4.24
2023-01-26T01:21:58.548Z,4.30
2023-01-26T01:24:26.923Z,4.35
2023-01-26T01:26:55.179Z,4.18
2023-01-26T01:29:23.520Z,4.24
2023-01-26T01:31:51.860Z,4.32
2023-01-26T01:34:20.205Z,4.29
2023-01-26T01:36:48.579Z,4.38
2023-01-26T01:39:18.220Z,4.43
2023-01-26T01:41:46.822Z,4.47
2023-01-26T01:44:19.438Z,4.47
2023-01-26T01:46:53.030Z,4.50
2023-01-26T01:49:27.079Z,4.54
2023-01-26T01:51:59.735Z,4.55
2023-01-26T01:54:36.532Z,4.55
2023-01-26T01:57:15.412Z,4.52
2023-01-26T01:59:47.094Z,4.54
2023-01-26T02:02:16.037Z,4.62
2023-01-26T02:04:44.520Z,4.65
2023-01-26T02:07:13.359Z,4.68
2023-01-26T02:10:02.273Z,4.72
2023-01-26T02:12:33.710Z,4.70
2023-01-26T02:15:03.892Z,4.73
2023-01-26T02:17:32.271Z,4.84
2023-01-26T02:20:09.630Z,4.86
2023-01-26T02:22:48.110Z,4.87
2023-01-26T02:25:33.525Z,4.92
2023-01-26T02:28:03.264Z,4.94
2023-01-26T02:30:31.943Z,4.99
2023-01-26T02:33:00.848Z,4.97
2023-01-26T02:35:29.290Z,5.05
2023-01-26T02:37:57.854Z,5.08
2023-01-26T02:40:34.320Z,5.09
2023-01-26T02:43:03.255Z,5.12
2023-01-26T02:45:32.680Z,5.16
2023-01-26T02:48:04.696Z,5.18
2023-01-26T02:50:32.639Z,5.20
2023-01-26T02:53:01.036Z,5.21
2023-01-26T02:55:30.752Z,5.17
2023-01-26T02:58:01.866Z,5.20
2023-01-26T03:00:37.187Z,5.23
2023-01-26T03:03:14.711Z,5.19
2023-01-26T03:05:43.389Z,5.28
2023-01-26T03:08:11.666Z,5.29
2023-01-26T03:10:40.527Z,5.23
2023-01-26T03:13:09.205Z,5.30
2023-01-26T03:15:52.381Z,5.35
2023-01-26T03:18:41.774Z,5.14
2023-01-26T03:21:31.653Z,5.39
2023-01-26T03:24:17.714Z,5.43
2023-01-26T03:27:04.577Z,5.40
2023-01-26T03:29:34.426Z,5.39
2023-01-26T03:32:05.219Z,5.44
2023-01-26T03:34:34.023Z,5.29
2023-01-26T03:37:02.387Z,5.36
2023-01-26T03:39:56.160Z,5.44
2023-01-26T03:42:42.807Z,5.37
2023-01-26T03:45:29.637Z,5.43
2023-01-26T03:48:25.474Z,5.28
2023-01-26T03:51:11.533Z,5.30
2023-01-26T03:53:57.543Z,5.31
2023-01-26T03:56:27.274Z,5.25
2023-01-26T03:59:07.921Z,5.09
2023-01-26T04:01:38.280Z,5.16
2023-01-26T04:04:26.338Z,5.02
2023-01-26T04:07:12.543Z,5.14
2023-01-26T04:09:46.191Z,5.16
2023-01-26T04:12:14.819Z,5.21
2023-01-26T04:15:12.716Z,5.29
2023-01-26T04:17:59.110Z,5.22
2023-01-26T04:20:46.512Z,5.38
2023-01-26T04:23:19.439Z,5.35
2023-01-26T04:25:49.507Z,5.45
2023-01-26T04:28:18.499Z,5.45
2023-01-26T04:30:48.295Z,5.50
2023-01-26T04:33:16.605Z,5.53
2023-01-26T04:35:46.453Z,5.62
2023-01-26T04:38:14.922Z,5.66
2023-01-26T04:40:44.194Z,5.65
2023-01-26T04:43:12.524Z,5.61
2023-01-26T04:45:41.043Z,5.70
2023-01-26T04:48:09.357Z,5.71
2023-01-26T04:50:37.694Z,5.72
2023-01-26T04:53:07.347Z,5.64
2023-01-26T04:55:35.692Z,5.28
2023-01-26T04:58:04.061Z,5.77
2023-01-26T05:00:32.983Z,5.74
2023-01-26T05:03:02.600Z,5.70
2023-01-26T05:05:31.190Z,5.71
2023-01-26T05:07:59.476Z,5.78
2023-01-26T05:10:31.723Z,5.86
2023-01-26T05:13:24.799Z,5.82
2023-01-26T05:16:06.031Z,5.90
2023-01-26T05:18:43.610Z,5.93
2023-01-26T05:21:27.465Z,5.91
2023-01-26T05:23:56.498Z,5.84
2023-01-26T05:27:22.770Z,5.94
2023-01-26T05:29:55.206Z,5.89
2023-01-26T05:32:23.929Z,6.01
2023-01-26T05:34:52.251Z,6.15
2023-01-26T05:37:20.909Z,6.23
2023-01-26T05:39:49.225Z,6.25
2023-01-26T05:42:19.537Z,6.33
2023-01-26T05:45:08.147Z,6.45
2023-01-26T05:47:38.017Z,6.62
2023-01-26T05:50:08.025Z,6.66
2023-01-26T05:52:36.875Z,6.70
2023-01-26T05:55:06.606Z,6.80
2023-01-26T05:57:36.909Z,6.85
2023-01-26T06:00:09.884Z,6.99
2023-01-26T06:02:53.943Z,7.08
2023-01-26T06:05:22.840Z,7.10
2023-01-26T06:07:51.838Z,7.07
2023-01-26T06:10:26.428Z,7.19
2023-01-26T06:13:25.334Z,7.20
2023-01-26T06:16:02.524Z,7.31
2023-01-26T06:18:32.041Z,7.43
2023-01-26T06:21:02.642Z,7.49
2023-01-26T06:23:31.909Z,7.40
2023-01-26T06:26:03.718Z,7.52
2023-01-26T06:28:33.388Z,7.57
2023-01-26T06:31:02.220Z,7.38
2023-01-26T06:33:31.350Z,7.74
2023-01-26T06:36:03.834Z,7.64
2023-01-26T06:38:32.627Z,7.73
2023-01-26T06:41:03.002Z,7.77
2023-01-26T06:43:34.997Z,7.68
2023-01-26T06:46:04.865Z,7.50
2023-01-26T06:48:35.507Z,7.70
2023-01-26T06:51:24.018Z,7.82
2023-01-26T06:53:55.161Z,7.75
2023-01-26T06:56:34.152Z,7.80
2023-01-26T06:59:26.928Z,7.79
2023-01-26T07:02:24.355Z,7.83
2023-01-26T07:04:53.057Z,7.68
2023-01-26T07:07:21.334Z,7.87
2023-01-26T07:09:49.664Z,7.88
2023-01-26T07:12:17.932Z,7.93
2023-01-26T07:14:47.706Z,7.93
2023-01-26T07:17:15.926Z,7.94
2023-01-26T07:19:45.284Z,7.99
2023-01-26T07:22:15.638Z,7.99
2023-01-26T07:24:43.936Z,7.95
2023-01-26T07:27:12.216Z,8.05
2023-01-26T07:29:40.458Z,8.03
2023-01-26T07:32:10.139Z,8.07
2023-01-26T07:34:38.379Z,7.97
2023-01-26T07:37:06.664Z,7.86
2023-01-26T07:39:34.974Z,7.88
2023-01-26T07:42:03.336Z,7.82
2023-01-26T07:44:46.512Z,7.81
2023-01-26T07:47:16.214Z,7.82
2023-01-26T07:49:44.496Z,7.84
2023-01-26T07:52:12.764Z,7.81
2023-01-26T07:54:41.156Z,7.84
2023-01-26T07:57:09.485Z,7.76
2023-01-26T07:59:38.100Z,7.85
2023-01-26T08:02:06.341Z,7.89
2023-01-26T08:04:35.996Z,7.90
2023-01-26T08:07:04.796Z,7.93
2023-01-26T08:09:33.263Z,7.97
2023-01-26T08:12:01.779Z,7.86
2023-01-26T08:14:45.152Z,8.05
2023-01-26T08:17:17.389Z,8.01
2023-01-26T08:19:47.935Z,7.88
2023-01-26T08:22:16.203Z,8.06
2023-01-26T08:24:44.427Z,7.69
2023-01-26T08:27:12.997Z,8.19
2023-01-26T08:29:41.360Z,8.27
2023-01-26T08:32:10.045Z,8.41
2023-01-26T08:34:38.343Z,8.67
2023-01-26T08:37:07.983Z,8.81
2023-01-26T08:39:36.308Z,8.96
2023-01-26T08:42:04.896Z,9.15
2023-01-26T08:44:33.191Z,9.36
2023-01-26T08:47:01.462Z,9.74
2023-01-26T08:49:29.800Z,9.95
2023-01-26T08:51:58.018Z,10.26
2023-01-26T08:54:28.726Z,10.41
2023-01-26T08:56:56.835Z,10.63
2023-01-26T08:59:25.101Z,10.87
2023-01-26T09:01:53.461Z,11.03
2023-01-26T09:04:21.879Z,11.31
2023-01-26T09:06:50.181Z,11.49
2023-01-26T09:09:18.577Z,11.61
2023-01-26T09:11:48.216Z,11.63
2023-01-26T09:14:16.542Z,11.57
2023-01-26T09:16:44.894Z,11.53
2023-01-26T09:19:13.228Z,11.61
2023-01-26T09:21:41.520Z,11.68
2023-01-26T09:24:10.550Z,11.84
2023-01-26T09:26:38.816Z,11.98
2023-01-26T09:29:08.522Z,11.86
2023-01-26T09:31:36.876Z,11.75
2023-01-26T09:34:05.167Z,11.60
2023-01-26T09:36:33.871Z,11.71
2023-01-26T09:39:02.196Z,12.00
2023-01-26T09:41:53.120Z,12.18
2023-01-26T09:44:25.690Z,11.75
2023-01-26T09:47:06.621Z,12.25
2023-01-26T09:49:48.420Z,12.53
2023-01-26T09:52:25.915Z,12.73
2023-01-26T09:54:56.405Z,12.91
2023-01-26T09:57:32.017Z,13.11
2023-01-26T10:00:09.244Z,13.34
2023-01-26T10:02:52.774Z,13.40
2023-01-26T10:05:31.482Z,13.50
2023-01-26T10:08:13.343Z,13.73
2023-01-26T10:10:47.956Z,13.72
2023-01-26T10:13:17.982Z,14.01
2023-01-26T10:15:53.528Z,13.85
2023-01-26T10:18:29.884Z,13.95
2023-01-26T10:21:01.769Z,14.22
2023-01-26T10:23:32.838Z,14.45
2023-01-26T10:26:13.053Z,14.57
2023-01-26T10:28:44.053Z,14.74
2023-01-26T10:31:18.831Z,14.56
2023-01-26T10:33:55.824Z,14.84
2023-01-26T10:36:24.497Z,14.90
2023-01-26T10:38:53.577Z,14.80
2023-01-26T10:41:28.609Z,14.80
2023-01-26T10:43:59.474Z,14.72
2023-01-26T10:46:33.911Z,14.75
2023-01-26T10:49:05.466Z,14.78
2023-01-26T10:51:36.357Z,14.55
2023-01-26T10:54:24.132Z,14.52
2023-01-26T10:56:56.643Z,14.78
2023-01-26T10:59:31.504Z,14.71
2023-01-26T11:02:04.720Z,14.65
2023-01-26T11:04:33.030Z,14.70
2023-01-26T11:07:27.093Z,14.57
2023-01-26T11:09:56.797Z,14.38
2023-01-26T11:12:27.232Z,14.09
2023-01-26T11:15:08.726Z,13.76
2023-01-26T11:17:44.340Z,13.67
2023-01-26T11:20:48.921Z,13.74
2023-01-26T11:23:29.522Z,13.75
2023-01-26T11:26:29.504Z,13.37
2023-01-26T11:29:18.622Z,13.94
2023-01-26T11:31:58.708Z,14.00
2023-01-26T11:34:42.594Z,13.88
2023-01-26T11:37:40.980Z,13.71
2023-01-26T11:40:29.977Z,13.64
2023-01-26T11:43:34.945Z,13.50
2023-01-26T11:46:28.299Z,13.37
2023-01-26T11:49:16.137Z,13.09
2023-01-26T11:52:02.037Z,12.90
2023-01-26T11:55:05.338Z,12.81
2023-01-26T11:57:44.235Z,12.78
2023-01-26T12:00:30.023Z,12.63
2023-01-26T12:03:03.997Z,12.54
2023-01-26T12:05:42.304Z,12.16
2023-01-26T12:08:21.398Z,12.17
2023-01-26T12:11:21.630Z,12.03
2023-01-26T12:13:59.285Z,11.94
2023-01-26T12:16:39.154Z,11.83
2023-01-26T12:19:16.603Z,11.77
2023-01-26T12:21:47.081Z,11.91
2023-01-26T12:24:54.348Z,11.88
2023-01-26T12:27:24.735Z,11.89
2023-01-26T12:29:59.077Z,11.79
2023-01-26T12:32:27.403Z,11.71
2023-01-26T12:34:55.745Z,11.62
2023-01-26T12:37:42.844Z,11.67
2023-01-26T12:40:26.406Z,11.75
2023-01-26T12:43:14.241Z,11.76
2023-01-26T12:45:46.068Z,11.78
2023-01-26T12:48:20.509Z,11.86
2023-01-26T12:50:54.142Z,12.03
2023-01-26T12:53:30.202Z,11.93
2023-01-26T12:56:10.773Z,12.18
2023-01-26T12:58:43.212Z,12.22
2023-01-26T13:01:15.009Z,12.17
2023-01-26T13:03:47.274Z,12.09
2023-01-26T13:06:24.672Z,12.16
2023-01-26T13:09:04.382Z,12.05
2023-01-26T13:11:50.424Z,11.36
2023-01-26T13:14:38.217Z,11.86
2023-01-26T13:17:55.899Z,11.84
2023-01-26T13:20:47.317Z,11.62
2023-01-26T13:23:42.594Z,11.62
2023-01-26T13:26:18.215Z,11.76
2023-01-26T13:28:49.797Z,11.75
2023-01-26T13:31:33.899Z,11.72
2023-01-26T13:34:09.016Z,11.74
2023-01-26T13:36:40.303Z,11.68
2023-01-26T13:39:17.271Z,11.77
2023-01-26T13:41:48.427Z,11.69
2023-01-26T13:44:23.278Z,11.72
2023-01-26T13:46:56.842Z,11.67
2023-01-26T13:49:28.122Z,11.60
2023-01-26T13:51:56.500Z,11.58
2023-01-26T13:54:27.133Z,11.59
2023-01-26T13:57:03.808Z,11.41
2023-01-26T13:59:34.520Z,11.35
2023-01-26T14:02:02.899Z,11.17
2023-01-26T14:04:35.145Z,11.33
2023-01-26T14:07:06.946Z,11.29
2023-01-26T14:09:43.949Z,11.18
2023-01-26T14:12:22.005Z,11.25
2023-01-26T14:14:54.583Z,11.18
2023-01-26T14:17:28.695Z,11.23
2023-01-26T14:19:58.288Z,11.14
2023-01-26T14:22:27.103Z,11.00
2023-01-26T14:24:56.145Z,10.96
2023-01-26T14:27:34.307Z,11.08
2023-01-26T14:30:09.233Z,11.02
2023-01-26T14:32:37.824Z,11.04
2023-01-26T14:35:23.413Z,11.01
2023-01-26T14:37:52.079Z,10.98
2023-01-26T14:40:24.081Z,10.88
2023-01-26T14:42:54.806Z,11.00
2023-01-26T14:45:29.293Z,10.94
2023-01-26T14:48:00.165Z,10.94
2023-01-26T14:50:32.257Z,10.85
2023-01-26T14:53:01.580Z,10.73
2023-01-26T14:55:32.134Z,10.87
2023-01-26T14:58:04.714Z,10.81
2023-01-26T15:00:38.260Z,10.90
2023-01-26T15:03:14.911Z,10.76
2023-01-26T15:05:43.316Z,10.50
2023-01-26T15:08:23.590Z,10.57
2023-01-26T15:11:16.369Z,10.48
2023-01-26T15:13:47.522Z,10.58
2023-01-26T15:16:20.324Z,10.42
2023-01-26T15:19:00.334Z,10.36
2023-01-26T15:21:34.614Z,10.53
2023-01-26T15:24:04.967Z,10.48
2023-01-26T15:26:35.393Z,10.42
2023-01-26T15:29:07.158Z,10.41
2023-01-26T15:31:41.524Z,10.45
2023-01-26T15:34:31.443Z,10.50
2023-01-26T15:37:00.601Z,10.45
2023-01-26T15:39:29.160Z,10.45
2023-01-26T15:42:14.503Z,10.34
2023-01-26T15:44:43.245Z,10.39
2023-01-26T15:47:13.931Z,10.33
2023-01-26T15:49:42.856Z,10.38
2023-01-26T15:52:15.325Z,10.42
2023-01-26T15:54:43.869Z,10.43
2023-01-26T15:57:12.608Z,10.44
2023-01-26T15:59:41.586Z,10.34
2023-01-26T16:02:16.556Z,10.16
2023-01-26T16:04:45.590Z,10.18
2023-01-26T16:07:15.995Z,10.08
2023-01-26T16:09:44.737Z,9.93
2023-01-26T16:12:31.305Z,9.85
2023-01-26T16:15:00.947Z,9.89
2023-01-26T16:17:30.785Z,9.89
2023-01-26T16:20:00.266Z,9.87
2023-01-26T16:22:28.487Z,9.97
2023-01-26T16:24:56.789Z,9.95
2023-01-26T16:27:25.321Z,10.09
2023-01-26T16:29:53.723Z,10.17
2023-01-26T16:32:30.354Z,10.26
2023-01-26T16:34:58.771Z,10.23
2023-01-26T16:37:27.312Z,10.29
2023-01-26T16:39:55.711Z,10.15
2023-01-26T16:42:24.003Z,10.21
2023-01-26T16:44:52.407Z,10.23
2023-01-26T16:47:20.821Z,10.19
2023-01-26T16:49:50.935Z,10.06
2023-01-26T16:52:19.292Z,10.07
2023-01-26T16:54:48.376Z,9.98
2023-01-26T16:57:16.749Z,10.09
2023-01-26T16:59:45.303Z,10.07
2023-01-26T17:02:25.005Z,10.09
2023-01-26T17:04:54.792Z,10.06
2023-01-26T17:07:23.080Z,10.13
2023-01-26T17:09:51.774Z,10.23
2023-01-26T17:12:20.100Z,10.25
2023-01-26T17:14:48.504Z,10.08
2023-01-26T17:17:18.576Z,10.14
2023-01-26T17:19:46.859Z,10.07
2023-01-26T17:22:16.565Z,10.15
2023-01-26T17:24:45.124Z,10.09
2023-01-26T17:27:13.360Z,10.08
2023-01-26T17:29:42.327Z,10.08
2023-01-26T17:32:10.824Z,10.08
2023-01-26T17:34:39.091Z,10.07
2023-01-26T17:37:07.306Z,10.09
2023-01-26T17:39:37.335Z,10.03
2023-01-26T17:42:05.744Z,9.89
2023-01-26T17:44:34.025Z,10.00
2023-01-26T17:47:02.547Z,9.99
2023-01-26T17:49:30.824Z,9.96
2023-01-26T17:51:59.191Z,9.84
2023-01-26T17:54:27.690Z,9.95
2023-01-26T17:56:57.892Z,9.93
2023-01-26T17:59:26.412Z,9.91
2023-01-26T18:01:54.987Z,9.81
2023-01-26T18:04:23.328Z,9.59
2023-01-26T18:06:51.659Z,9.83
2023-01-26T18:09:20.560Z,9.70
2023-01-26T18:11:49.763Z,9.67
2023-01-26T18:14:19.506Z,9.52
2023-01-26T18:16:48.057Z,9.53
2023-01-26T18:19:16.725Z,9.00
2023-01-26T18:21:45.167Z,9.75
2023-01-26T18:24:13.865Z,9.82
2023-01-26T18:26:42.197Z,9.82
2023-01-26T18:29:11.785Z,9.81
2023-01-26T18:31:41.924Z,9.77
2023-01-26T18:34:12.082Z,9.91
2023-01-26T18:36:40.680Z,9.92
2023-01-26T18:39:13.845Z,9.92
2023-01-26T18:41:43.335Z,9.81
2023-01-26T18:44:11.852Z,9.77
2023-01-26T18:46:41.820Z,9.78
2023-01-26T18:49:11.253Z,9.77
2023-01-26T18:51:39.622Z,9.76
2023-01-26T18:54:09.824Z,9.90
2023-01-26T18:56:38.242Z,9.98
2023-01-26T18:59:06.562Z,9.77
2023-01-26T19:01:35.296Z,9.61
2023-01-26T19:04:06.840Z,9.50
2023-01-26T19:06:36.446Z,9.59
2023-01-26T19:09:07.118Z,9.52
2023-01-26T19:11:36.849Z,9.34
2023-01-26T19:14:07.378Z,9.37
2023-01-26T19:16:36.181Z,8.99
2023-01-26T19:19:06.114Z,9.27
2023-01-26T19:21:34.613Z,9.28
2023-01-26T19:24:06.321Z,9.34
2023-01-26T19:26:35.384Z,9.34
2023-01-26T19:29:04.060Z,9.40
2023-01-26T19:31:32.454Z,9.36
2023-01-26T19:34:03.514Z,9.42
2023-01-26T19:36:36.909Z,9.45
2023-01-26T19:39:07.172Z,9.54
2023-01-26T19:41:35.916Z,9.62
2023-01-26T19:44:04.470Z,9.63
2023-01-26T19:46:33.100Z,9.58
2023-01-26T19:49:01.447Z,9.63
2023-01-26T19:51:30.721Z,9.16
2023-01-26T19:54:00.889Z,9.64
2023-01-26T19:56:31.898Z,9.67
2023-01-26T19:59:03.102Z,9.64
2023-01-26T20:01:33.381Z,9.64
2023-01-26T20:04:04.799Z,9.65
2023-01-26T20:06:36.313Z,9.78
2023-01-26T20:09:08.551Z,9.77
2023-01-26T20:11:37.817Z,9.61
2023-01-26T20:14:08.590Z,9.70
2023-01-26T20:16:37.302Z,9.69
2023-01-26T20:19:06.332Z,9.68
2023-01-26T20:21:35.526Z,9.69
2023-01-26T20:24:06.727Z,9.03
2023-01-26T20:26:36.349Z,9.71
2023-01-26T20:29:04.926Z,9.65
2023-01-26T20:31:33.968Z,9.65
2023-01-26T20:34:02.679Z,9.56
2023-01-26T20:36:32.062Z,9.67
2023-01-26T20:39:00.511Z,9.67
2023-01-26T20:41:32.802Z,9.71
2023-01-26T20:44:03.439Z,9.71
2023-01-26T20:46:33.586Z,9.75
2023-01-26T20:49:02.563Z,9.66
2023-01-26T20:51:35.956Z,9.51
2023-01-26T20:54:07.385Z,9.71
2023-01-26T20:56:38.526Z,9.78
2023-01-26T20:59:08.727Z,9.80
2023-01-26T21:01:37.277Z,9.71
2023-01-26T21:04:06.991Z,9.74
2023-01-26T21:06:36.244Z,9.77
2023-01-26T21:09:05.031Z,9.71
2023-01-26T21:11:33.990Z,9.74
2023-01-26T21:14:03.910Z,9.78
2023-01-26T21:16:35.734Z,9.82
2023-01-26T21:19:04.381Z,9.77
2023-01-26T21:21:32.828Z,9.69
2023-01-26T21:24:01.563Z,9.74
2023-01-26T21:26:30.088Z,9.70
2023-01-26T21:29:00.623Z,9.63
2023-01-26T21:31:32.895Z,9.68
2023-01-26T21:34:02.555Z,9.69
2023-01-26T21:36:34.055Z,9.66
2023-01-26T21:39:07.178Z,9.68
2023-01-26T21:41:53.171Z,9.65
2023-01-26T21:44:23.750Z,9.41
2023-01-26T21:46:56.032Z,9.52
2023-01-26T21:49:26.057Z,9.48
2023-01-26T21:52:12.492Z,9.33
2023-01-26T21:54:41.589Z,9.38
2023-01-26T21:57:25.596Z,9.41
2023-01-26T21:59:54.211Z,9.46
2023-01-26T22:02:24.112Z,9.30
2023-01-26T22:04:52.862Z,9.32
2023-01-26T22:07:21.261Z,9.28
2023-01-26T22:09:49.577Z,9.25
2023-01-26T22:12:18.126Z,9.28
2023-01-26T22:14:46.590Z,9.37
2023-01-26T22:17:14.860Z,9.36
2023-01-26T22:19:44.650Z,9.16
2023-01-26T22:22:13.074Z,9.41
2023-01-26T22:24:41.477Z,9.38
2023-01-26T22:27:09.957Z,9.50
2023-01-26T22:29:38.252Z,9.47
2023-01-26T22:32:07.052Z,9.43
2023-01-26T22:34:36.034Z,9.21
2023-01-26T22:37:05.974Z,9.43
2023-01-26T22:39:34.282Z,9.46
2023-01-26T22:42:03.424Z,9.28
2023-01-26T22:44:31.726Z,9.34
2023-01-26T22:47:00.014Z,9.24
2023-01-26T22:49:28.449Z,9.30
2023-01-26T22:51:56.890Z,9.36
2023-01-26T22:54:27.756Z,9.33
2023-01-26T22:56:56.076Z,9.39
2023-01-26T22:59:24.436Z,9.35
2023-01-26T23:01:52.755Z,9.36
2023-01-26T23:04:21.085Z,9.32
2023-01-26T23:06:49.439Z,9.25
2023-01-26T23:09:17.705Z,9.19
2023-01-26T23:12:02.449Z,9.19
2023-01-26T23:14:31.654Z,9.21
2023-01-26T23:17:00.234Z,9.04
2023-01-26T23:19:30.089Z,9.22
2023-01-26T23:21:58.470Z,9.26
2023-01-26T23:24:26.849Z,9.22
2023-01-26T23:26:55.275Z,9.19
2023-01-26T23:29:25.182Z,9.23
2023-01-26T23:31:53.628Z,9.23
2023-01-26T23:34:22.330Z,9.25
2023-01-26T23:36:50.641Z,8.86
2023-01-26T23:39:19.040Z,9.35
2023-01-26T23:41:47.388Z,9.37
2023-01-26T23:44:15.851Z,9.31
2023-01-26T23:46:45.696Z,9.39
2023-01-26T23:49:14.175Z,9.36
2023-01-26T23:51:42.428Z,9.36
2023-01-26T23:54:10.723Z,9.29
2023-01-26T23:56:39.026Z,9.39
2023-01-26T23:59:07.464Z,9.38
